Time;durP1;ratioP1;P1;durP2;ratioP2;P2;SDS_P1;SDS_P2;PMS_P1;PMS_P2;Temp;Humidity;BMP_temperature;BMP_pressure;BME280_temperature;BME280_humidity;BME280_pressure;Samples;Min_cycle;Max_cycle;Signal;HPM_P1;HPM_P2
2023/03/30 00:00:17;;;;;;;5.00;1.70;;;17.20;99.90;;;;;;5076425;28;20181;-74
2023/03/30 00:02:47;;;;;;;4.00;1.70;;;17.00;99.90;;;;;;5074716;28;20251;-74
2023/03/30 00:05:14;;;;;;;6.03;1.87;;;16.90;99.90;;;;;;5074573;28;20194;-74
2023/03/30 00:07:41;;;;;;;6.90;2.00;;;16.90;99.90;;;;;;5074877;28;20622;-74
2023/03/30 00:10:13;;;;;;;10.73;2.10;;;16.80;99.90;;;;;;5076088;28;20481;-73
2023/03/30 00:12:39;;;;;;;4.77;1.93;;;17.00;99.90;;;;;;5074106;28;20188;-74
2023/03/30 00:15:08;;;;;;;5.53;1.60;;;16.90;99.90;;;;;;5074759;28;20247;-74
2023/03/30 00:17:36;;;;;;;6.47;2.00;;;16.70;99.90;;;;;;5075848;28;20156;-74
2023/03/30 00:20:04;;;;;;;4.63;1.67;;;16.60;99.90;;;;;;5074333;28;20156;-74
2023/03/30 00:22:39;;;;;;;4.43;1.97;;;16.60;99.90;;;;;;5075648;28;20168;-74
2023/03/30 00:25:07;;;;;;;6.80;2.17;;;16.70;99.90;;;;;;5075931;28;20221;-74
2023/03/30 00:27:36;;;;;;;5.47;1.47;;;16.50;99.90;;;;;;5075537;28;20184;-74
2023/03/30 00:30:06;;;;;;;5.07;2.00;;;16.50;99.90;;;;;;5075629;28;20250;-73
2023/03/30 00:32:33;;;;;;;4.90;1.93;;;16.60;99.90;;;;;;5075118;28;20665;-73
2023/03/30 00:35:00;;;;;;;6.37;1.60;;;16.50;99.90;;;;;;5075660;28;20147;-73
2023/03/30 00:37:26;;;;;;;6.60;1.87;;;16.50;99.90;;;;;;5075736;28;20571;-74
2023/03/30 00:39:53;;;;;;;4.73;1.60;;;16.40;99.90;;;;;;5075980;28;20194;-73
2023/03/30 00:42:21;;;;;;;3.00;1.50;;;16.50;99.90;;;;;;5073840;28;20202;-74
2023/03/30 00:45:07;;;;;;;5.77;1.60;;;16.50;99.90;;;;;;5075490;28;20168;-76
2023/03/30 00:47:41;;;;;;;4.50;1.53;;;16.40;99.90;;;;;;5074203;28;20175;-73
2023/03/30 00:50:15;;;;;;;5.37;1.30;;;16.40;99.90;;;;;;5075329;28;20171;-76
2023/03/30 00:52:43;;;;;;;4.63;1.67;;;16.40;99.90;;;;;;5073683;28;20194;-74
2023/03/30 00:55:11;;;;;;;7.87;1.63;;;16.40;99.90;;;;;;5075039;28;20187;-74
2023/03/30 00:57:41;;;;;;;2.43;1.40;;;16.50;99.90;;;;;;5074886;28;20187;-72
2023/03/30 01:00:10;;;;;;;3.20;1.17;;;16.50;99.90;;;;;;5073781;28;20181;-75
2023/03/30 01:02:40;;;;;;;4.50;1.20;;;16.50;99.90;;;;;;5074967;28;20250;-74
2023/03/30 01:05:07;;;;;;;6.17;1.57;;;16.40;99.90;;;;;;5075165;28;20192;-74
2023/03/30 01:07:36;;;;;;;4.17;1.37;;;16.50;99.90;;;;;;5074843;28;20175;-75
2023/03/30 01:10:03;;;;;;;5.07;1.60;;;16.50;99.90;;;;;;5073826;28;20163;-75
2023/03/30 01:12:30;;;;;;;3.87;1.10;;;16.40;99.90;;;;;;5074538;28;20523;-73
2023/03/30 01:14:59;;;;;;;3.43;1.17;;;16.30;99.90;;;;;;5074843;28;20612;-73
2023/03/30 01:17:35;;;;;;;3.80;1.40;;;16.20;99.90;;;;;;5074467;28;20169;-73
2023/03/30 01:20:34;;;;;;;4.67;1.47;;;16.20;99.90;;;;;;5074787;28;20159;-75
2023/03/30 01:23:18;;;;;;;3.77;1.10;;;16.20;99.90;;;;;;5074779;28;20178;-75
2023/03/30 01:26:23;;;;;;;6.00;1.70;;;16.20;99.90;;;;;;5072708;28;20175;-74
2023/03/30 01:28:57;;;;;;;2.43;1.20;;;16.10;99.90;;;;;;5073426;28;20210;-74
2023/03/30 01:31:28;;;;;;;4.87;1.50;;;16.10;99.90;;;;;;5072946;28;20510;-74
2023/03/30 01:34:16;;;;;;;4.40;1.47;;;16.00;99.90;;;;;;5072923;28;20218;-73
2023/03/30 01:37:06;;;;;;;3.93;1.30;;;15.90;99.90;;;;;;5073220;28;20179;-74
2023/03/30 01:39:51;;;;;;;4.77;1.17;;;16.00;99.90;;;;;;5072600;28;20176;-75
2023/03/30 01:42:27;;;;;;;5.33;1.60;;;16.00;99.90;;;;;;5073861;28;20182;-74
2023/03/30 01:45:03;;;;;;;5.93;1.60;;;16.00;99.90;;;;;;5073975;28;20616;-74
2023/03/30 01:47:54;;;;;;;3.37;1.53;;;15.80;99.90;;;;;;5072463;28;20179;-74
2023/03/30 01:50:51;;;;;;;7.67;1.40;;;16.00;99.90;;;;;;5074172;28;20159;-74
2023/03/30 01:53:22;;;;;;;5.60;1.50;;;15.90;99.90;;;;;;5061208;28;20211;-73
2023/03/30 01:56:14;;;;;;;3.63;1.03;;;15.80;99.90;;;;;;5073536;28;20179;-75
2023/03/30 01:58:58;;;;;;;3.73;1.30;;;15.70;99.90;;;;;;5072394;28;20217;-73
2023/03/30 02:01:26;;;;;;;8.50;1.63;;;15.70;99.90;;;;;;5073534;28;20166;-74
2023/03/30 02:03:57;;;;;;;4.87;1.33;;;15.70;99.90;;;;;;5073737;28;20242;-75
2023/03/30 02:06:43;;;;;;;4.63;1.30;;;15.70;99.90;;;;;;5072043;28;20175;-74
2023/03/30 02:09:16;;;;;;;6.33;1.20;;;16.00;99.90;;;;;;5071303;28;20182;-74
2023/03/30 02:11:46;;;;;;;7.73;1.57;;;16.10;99.90;;;;;;5072017;28;20187;-74
2023/03/30 02:14:15;;;;;;;5.70;1.80;;;16.00;99.90;;;;;;5072057;28;20199;-74
2023/03/30 02:16:46;;;;;;;7.63;1.57;;;15.80;99.90;;;;;;5073517;28;20156;-75
2023/03/30 02:19:15;;;;;;;4.97;1.37;;;15.70;99.90;;;;;;5071749;28;20168;-75
2023/03/30 02:21:42;;;;;;;5.03;1.60;;;15.70;99.90;;;;;;5071724;28;20178;-73
2023/03/30 02:24:16;;;;;;;4.67;1.73;;;15.90;99.90;;;;;;5071652;28;20260;-73
2023/03/30 02:26:46;;;;;;;6.27;1.70;;;16.10;99.90;;;;;;5071912;28;20256;-74
2023/03/30 02:29:14;;;;;;;5.83;1.30;;;16.00;99.90;;;;;;5071924;28;20168;-73
2023/03/30 02:31:45;;;;;;;3.63;1.90;;;16.10;99.90;;;;;;5071883;28;20236;-73
2023/03/30 02:34:42;;;;;;;3.23;1.33;;;16.00;99.90;;;;;;5071870;28;20219;-73
2023/03/30 02:37:37;;;;;;;4.30;1.10;;;15.90;99.90;;;;;;5071572;28;20179;-75
2023/03/30 02:40:37;;;;;;;4.03;1.50;;;15.90;99.90;;;;;;5072068;28;20178;-74
2023/03/30 02:43:28;;;;;;;3.87;1.37;;;15.80;99.90;;;;;;5073200;28;20166;-73
2023/03/30 02:46:30;;;;;;;5.20;1.40;;;15.90;99.90;;;;;;5073148;28;20179;-75
2023/03/30 02:49:15;;;;;;;3.90;1.60;;;16.00;99.90;;;;;;5071744;28;20227;-73
2023/03/30 02:51:49;;;;;;;3.80;1.27;;;15.80;99.90;;;;;;5071619;28;20175;-73
2023/03/30 02:54:39;;;;;;;5.97;1.53;;;15.90;99.90;;;;;;5072870;28;20203;-74
2023/03/30 02:57:10;;;;;;;7.60;1.50;;;15.90;99.90;;;;;;5072032;28;20213;-74
2023/03/30 02:59:56;;;;;;;5.33;1.70;;;15.90;99.90;;;;;;5071659;28;20240;-73
2023/03/30 03:02:40;;;;;;;3.50;1.43;;;15.80;99.90;;;;;;5071650;28;20163;-75
2023/03/30 03:05:09;;;;;;;4.00;1.40;;;15.80;99.90;;;;;;5072876;28;20187;-74
2023/03/30 03:07:38;;;;;;;5.77;1.70;;;15.70;99.90;;;;;;5075746;28;20163;-73
2023/03/30 03:10:05;;;;;;;3.47;1.40;;;15.60;99.90;;;;;;5075858;28;20568;-74
2023/03/30 03:12:32;;;;;;;4.33;1.10;;;15.70;99.90;;;;;;5075501;28;20512;-74
2023/03/30 03:15:00;;;;;;;5.83;1.57;;;15.60;99.90;;;;;;5075537;28;20167;-74
2023/03/30 03:17:33;;;;;;;3.83;1.10;;;15.60;99.90;;;;;;5075698;28;20163;-74
2023/03/30 03:20:07;;;;;;;5.93;1.33;;;15.70;99.90;;;;;;5076851;28;20143;-73
2023/03/30 03:22:32;;;;;;;5.70;1.30;;;15.70;99.90;;;;;;5075322;28;20155;-75
2023/03/30 03:24:58;;;;;;;5.30;1.67;;;15.90;99.90;;;;;;5075329;28;20627;-74
2023/03/30 03:27:27;;;;;;;5.63;1.30;;;15.90;99.90;;;;;;5075657;28;20158;-74
2023/03/30 03:29:54;;;;;;;2.77;1.30;;;15.90;99.90;;;;;;5075384;28;20155;-75
2023/03/30 03:32:19;;;;;;;6.67;1.20;;;15.90;99.90;;;;;;5074794;28;20263;-74
2023/03/30 03:34:45;;;;;;;3.40;1.43;;;15.70;99.90;;;;;;5075141;28;20344;-74
2023/03/30 03:37:11;;;;;;;4.93;1.60;;;15.50;99.90;;;;;;5075090;28;20171;-76
2023/03/30 03:39:38;;;;;;;3.43;1.40;;;15.60;99.90;;;;;;5076284;28;20167;-74
2023/03/30 03:42:06;;;;;;;4.30;1.20;;;15.60;99.90;;;;;;5075005;28;20168;-75
2023/03/30 03:44:32;;;;;;;2.83;1.30;;;15.40;99.90;;;;;;5074954;28;20266;-75
2023/03/30 03:46:58;;;;;;;2.83;1.10;;;15.50;99.90;;;;;;5076271;28;20166;-75
2023/03/30 03:49:25;;;;;;;5.80;1.30;;;15.60;99.90;;;;;;5076217;28;20693;-75
2023/03/30 03:51:52;;;;;;;4.97;1.20;;;15.50;99.90;;;;;;5074433;28;20183;-74
2023/03/30 03:54:18;;;;;;;4.50;1.70;;;15.60;99.90;;;;;;5074597;28;20241;-74
2023/03/30 03:56:44;;;;;;;4.00;1.20;;;15.60;99.90;;;;;;5075816;28;20199;-74
2023/03/30 03:59:10;;;;;;;4.33;1.10;;;15.50;99.90;;;;;;5074770;28;20175;-74
2023/03/30 04:01:39;;;;;;;4.17;1.03;;;15.60;99.90;;;;;;5076207;28;20237;-76
2023/03/30 04:04:05;;;;;;;2.87;1.20;;;15.50;99.90;;;;;;5074872;28;20583;-74
2023/03/30 04:06:31;;;;;;;5.20;1.47;;;15.50;99.90;;;;;;5074376;28;20206;-75
2023/03/30 04:08:57;;;;;;;4.67;1.10;;;15.50;99.90;;;;;;5076014;28;20164;-75
2023/03/30 04:11:26;;;;;;;4.47;1.60;;;15.40;99.90;;;;;;5076189;28;20167;-74
2023/03/30 04:13:51;;;;;;;3.03;1.40;;;15.30;99.90;;;;;;5074552;28;20241;-76
2023/03/30 04:16:18;;;;;;;5.67;1.20;;;15.30;99.90;;;;;;5074466;28;20567;-75
2023/03/30 04:18:46;;;;;;;3.87;1.33;;;15.40;99.90;;;;;;5075878;28;20191;-74
2023/03/30 04:21:16;;;;;;;3.13;1.27;;;15.40;99.90;;;;;;5074652;28;20178;-75
2023/03/30 04:23:48;;;;;;;5.73;1.30;;;15.40;99.90;;;;;;5076120;28;20185;-74
2023/03/30 04:26:16;;;;;;;3.80;1.13;;;15.40;99.90;;;;;;5074367;28;20624;-75
2023/03/30 04:28:42;;;;;;;2.77;1.20;;;15.40;99.90;;;;;;5074454;28;20558;-74
2023/03/30 04:31:09;;;;;;;3.20;1.30;;;15.30;99.90;;;;;;5075650;28;20512;-74
2023/03/30 04:33:49;;;;;;;3.93;1.70;;;15.40;99.90;;;;;;5073659;28;20237;-75
2023/03/30 04:36:19;;;;;;;3.70;1.37;;;15.40;99.90;;;;;;5055773;28;20171;-75
2023/03/30 04:39:02;;;;;;;5.50;1.97;;;15.50;99.90;;;;;;5055513;28;20184;-73
2023/03/30 04:41:34;;;;;;;3.90;1.27;;;15.40;99.90;;;;;;5053907;28;20176;-75
2023/03/30 04:44:01;;;;;;;6.13;1.53;;;15.30;99.90;;;;;;5055374;28;20612;-73
2023/03/30 04:46:27;;;;;;;4.43;1.33;;;15.20;99.90;;;;;;5054224;28;20281;-76
2023/03/30 04:48:53;;;;;;;4.43;1.47;;;15.00;99.90;;;;;;5053554;28;20525;-73
2023/03/30 04:51:19;;;;;;;2.47;1.23;;;14.70;99.90;;;;;;5055262;28;20179;-73
2023/03/30 04:53:44;;;;;;;4.50;1.50;;;14.50;99.90;;;;;;5055108;28;20184;-75
2023/03/30 04:56:12;;;;;;;5.20;1.60;;;14.40;99.90;;;;;;5053989;28;20182;-74
2023/03/30 04:58:38;;;;;;;6.07;1.57;;;14.40;99.90;;;;;;5053903;28;20278;-75
2023/03/30 05:01:03;;;;;;;3.97;1.87;;;14.40;99.90;;;;;;5053762;28;20599;-76
2023/03/30 05:03:30;;;;;;;3.03;1.40;;;14.60;99.90;;;;;;5053624;28;20167;-74
2023/03/30 05:05:57;;;;;;;4.53;1.30;;;14.50;99.90;;;;;;5053706;28;20180;-75
2023/03/30 05:08:23;;;;;;;3.37;1.10;;;14.50;99.90;;;;;;5053735;28;20187;-75
2023/03/30 05:10:49;;;;;;;6.83;2.00;;;14.50;99.90;;;;;;5055047;28;20164;-75
2023/03/30 05:13:16;;;;;;;6.87;1.33;;;14.50;99.90;;;;;;5053410;28;20236;-75
2023/03/30 05:15:42;;;;;;;4.17;1.07;;;14.50;99.90;;;;;;5053744;28;20175;-75
2023/03/30 05:18:09;;;;;;;4.40;1.00;;;14.40;99.90;;;;;;5053322;28;20176;-74
2023/03/30 05:20:35;;;;;;;3.67;1.50;;;14.40;99.90;;;;;;5053560;28;20176;-74
2023/03/30 05:23:00;;;;;;;7.77;1.47;;;14.30;99.90;;;;;;5054964;28;20155;-74
2023/03/30 05:25:26;;;;;;;4.77;1.47;;;14.30;99.90;;;;;;5053435;28;20179;-76
2023/03/30 05:27:54;;;;;;;5.90;1.30;;;14.10;99.90;;;;;;5052432;28;20168;-76
2023/03/30 05:30:20;;;;;;;7.20;1.80;;;14.10;99.90;;;;;;5053320;28;20176;-73
2023/03/30 05:32:47;;;;;;;4.90;1.40;;;14.20;99.90;;;;;;5052832;28;20218;-74
2023/03/30 05:35:13;;;;;;;4.00;1.27;;;14.20;99.90;;;;;;5053042;28;20171;-74
2023/03/30 05:37:39;;;;;;;5.03;1.17;;;14.10;99.90;;;;;;5053058;28;20182;-74
2023/03/30 05:40:08;;;;;;;4.33;1.27;;;14.10;99.90;;;;;;5052648;28;20644;-74
2023/03/30 05:42:35;;;;;;;6.87;1.50;;;14.10;99.90;;;;;;5052566;28;20195;-73
2023/03/30 05:45:00;;;;;;;3.57;1.47;;;14.20;99.90;;;;;;5053157;28;20168;-75
2023/03/30 05:47:27;;;;;;;4.90;1.63;;;14.10;99.90;;;;;;5050738;28;20180;-75
2023/03/30 05:49:53;;;;;;;6.07;1.40;;;14.30;99.90;;;;;;5051806;28;20160;-75
2023/03/30 05:52:20;;;;;;;5.90;1.17;;;14.40;99.90;;;;;;5051860;28;20200;-75
2023/03/30 05:54:47;;;;;;;8.73;1.33;;;14.20;99.90;;;;;;5051384;28;20199;-74
2023/03/30 05:57:13;;;;;;;10.00;1.70;;;14.00;99.90;;;;;;5051782;28;20625;-74
2023/03/30 05:59:39;;;;;;;6.57;1.83;;;14.00;99.90;;;;;;5051535;28;20264;-75
2023/03/30 06:02:05;;;;;;;5.63;1.97;;;14.10;99.90;;;;;;5051835;28;20210;-75
2023/03/30 06:04:43;;;;;;;12.17;2.07;;;14.20;99.90;;;;;;5051521;28;20700;-75
2023/03/30 06:07:09;;;;;;;8.20;1.60;;;14.20;99.90;;;;;;5040398;28;20179;-75
2023/03/30 06:09:37;;;;;;;5.60;1.60;;;14.30;99.90;;;;;;5034932;28;20176;-75
2023/03/30 06:12:03;;;;;;;7.00;1.50;;;14.30;99.90;;;;;;5047180;28;20175;-75
2023/03/30 06:14:35;;;;;;;8.50;1.63;;;14.10;99.90;;;;;;5051964;28;20192;-74
2023/03/30 06:17:02;;;;;;;6.63;1.93;;;14.20;99.90;;;;;;5053225;28;20601;-75
2023/03/30 06:19:28;;;;;;;7.47;1.40;;;14.20;99.90;;;;;;5053785;28;20521;-76
2023/03/30 06:21:54;;;;;;;6.43;1.80;;;14.10;99.90;;;;;;5053340;28;20172;-74
2023/03/30 06:24:22;;;;;;;6.37;1.80;;;14.20;99.90;;;;;;5052440;28;20175;-76
2023/03/30 06:26:54;;;;;;;7.30;1.60;;;14.20;99.90;;;;;;5057476;28;20257;-75
2023/03/30 06:29:27;;;;;;;10.33;1.97;;;14.10;99.90;;;;;;5054044;28;20184;-75
2023/03/30 06:31:54;;;;;;;5.37;2.03;;;14.20;99.90;;;;;;5051941;28;20241;-74
2023/03/30 06:34:21;;;;;;;8.03;1.87;;;14.20;99.90;;;;;;5051849;28;20211;-75
2023/03/30 06:36:50;;;;;;;5.73;1.57;;;14.20;99.90;;;;;;5051953;28;20187;-74
2023/03/30 06:39:20;;;;;;;8.80;1.70;;;14.00;99.90;;;;;;5051249;28;20176;-75
2023/03/30 06:41:46;;;;;;;11.03;1.70;;;13.90;99.90;;;;;;5052366;28;20228;-74
2023/03/30 06:44:13;;;;;;;8.63;2.23;;;13.70;99.90;;;;;;5051927;28;20179;-73
2023/03/30 06:46:41;;;;;;;7.63;1.97;;;13.90;99.90;;;;;;5052532;28;20209;-75
2023/03/30 06:49:12;;;;;;;7.77;2.00;;;13.80;99.90;;;;;;5056615;28;20217;-74
2023/03/30 06:51:37;;;;;;;13.73;2.30;;;13.80;99.90;;;;;;5052266;28;20210;-74
2023/03/30 06:54:03;;;;;;;8.33;1.70;;;13.90;99.90;;;;;;5052830;28;20199;-74
2023/03/30 06:56:37;;;;;;;7.17;2.23;;;14.00;99.90;;;;;;5058857;28;20552;-75
2023/03/30 06:59:05;;;;;;;10.40;2.07;;;14.00;99.90;;;;;;5053778;28;20159;-75
2023/03/30 07:01:34;;;;;;;9.67;1.93;;;13.80;99.90;;;;;;5052561;28;20167;-75
2023/03/30 07:04:01;;;;;;;10.97;2.13;;;13.90;99.90;;;;;;5052441;28;20217;-75
2023/03/30 07:06:27;;;;;;;9.10;1.87;;;13.80;99.90;;;;;;5055046;28;20340;-75
2023/03/30 07:08:52;;;;;;;8.13;2.30;;;13.80;99.90;;;;;;5051868;28;20241;-74
2023/03/30 07:11:21;;;;;;;9.27;2.57;;;13.90;99.90;;;;;;5050145;28;20175;-75
2023/03/30 07:13:49;;;;;;;7.10;2.13;;;13.80;99.90;;;;;;5060829;28;20529;-75
2023/03/30 07:16:18;;;;;;;10.00;2.33;;;13.70;99.90;;;;;;5056422;28;20183;-75
2023/03/30 07:18:44;;;;;;;7.93;2.30;;;13.70;99.90;;;;;;5066352;28;20225;-75
2023/03/30 07:21:12;;;;;;;12.77;2.17;;;13.70;99.90;;;;;;5052619;28;20172;-74
2023/03/30 07:23:38;;;;;;;13.70;2.37;;;13.60;99.90;;;;;;5051623;28;20183;-75
2023/03/30 07:26:10;;;;;;;9.07;2.27;;;13.80;99.90;;;;;;5069178;28;20182;-74
2023/03/30 07:28:39;;;;;;;12.43;3.07;;;14.10;99.90;;;;;;5056071;28;20172;-74
2023/03/30 07:31:07;;;;;;;10.17;2.13;;;14.40;99.90;;;;;;5065573;28;20179;-75
2023/03/30 07:33:36;;;;;;;14.37;3.33;;;14.40;99.90;;;;;;5056649;28;20720;-75
2023/03/30 07:36:03;;;;;;;11.50;2.27;;;14.30;99.90;;;;;;5051525;28;20168;-74
2023/03/30 07:38:29;;;;;;;12.53;2.40;;;14.40;99.90;;;;;;5052824;28;20246;-77
2023/03/30 07:40:55;;;;;;;10.27;2.57;;;14.60;99.90;;;;;;5050656;28;20168;-74
2023/03/30 07:43:23;;;;;;;12.03;2.13;;;14.40;99.90;;;;;;5052516;28;20180;-75
2023/03/30 07:45:49;;;;;;;8.97;1.80;;;14.40;99.90;;;;;;5051099;28;20176;-74
2023/03/30 07:48:15;;;;;;;10.20;1.90;;;14.50;99.90;;;;;;5051342;28;20195;-75
2023/03/30 07:50:42;;;;;;;10.70;2.43;;;14.50;99.90;;;;;;5051515;28;20172;-74
2023/03/30 07:53:09;;;;;;;12.10;2.60;;;14.60;99.90;;;;;;5056400;28;20876;-75
2023/03/30 07:55:36;;;;;;;12.43;2.57;;;14.60;99.90;;;;;;5055030;28;20188;-75
2023/03/30 07:58:03;;;;;;;15.27;2.77;;;14.60;99.90;;;;;;5055093;28;20648;-75
2023/03/30 08:00:31;;;;;;;9.30;2.33;;;14.50;99.90;;;;;;5055373;28;20171;-75
2023/03/30 08:02:58;;;;;;;11.63;2.27;;;14.40;99.90;;;;;;5056278;28;20540;-76
2023/03/30 08:05:24;;;;;;;9.77;2.47;;;14.20;99.90;;;;;;5055527;28;20191;-74
2023/03/30 08:07:50;;;;;;;9.40;2.40;;;14.00;99.90;;;;;;5058784;28;20212;-74
2023/03/30 08:10:16;;;;;;;10.97;2.60;;;13.90;99.90;;;;;;5054658;28;20192;-74
2023/03/30 08:12:44;;;;;;;9.87;2.03;;;13.80;99.90;;;;;;5054194;28;20270;-76
2023/03/30 08:15:11;;;;;;;11.23;2.80;;;13.80;99.90;;;;;;5055781;28;20169;-75
2023/03/30 08:17:37;;;;;;;10.50;2.97;;;14.00;99.90;;;;;;5055319;28;20627;-74
2023/03/30 08:20:09;;;;;;;11.60;3.23;;;14.10;99.90;;;;;;5054153;28;20190;-76
2023/03/30 08:22:35;;;;;;;11.33;2.63;;;14.20;99.90;;;;;;5054009;28;20175;-75
2023/03/30 08:25:01;;;;;;;9.87;1.90;;;14.00;99.90;;;;;;5046349;28;20177;-76
2023/03/30 08:27:27;;;;;;;6.03;2.00;;;13.90;99.90;;;;;;5049924;28;20568;-75
2023/03/30 08:29:53;;;;;;;10.57;1.93;;;13.80;99.90;;;;;;5048804;28;20179;-76
2023/03/30 08:32:19;;;;;;;11.73;2.67;;;13.80;99.90;;;;;;5042465;28;20167;-76
2023/03/30 08:34:52;;;;;;;9.70;2.37;;;13.90;99.90;;;;;;5055634;28;20196;-77
2023/03/30 08:37:20;;;;;;;6.37;1.80;;;14.00;99.90;;;;;;5047866;28;20179;-76
2023/03/30 08:39:47;;;;;;;9.97;2.20;;;13.90;99.90;;;;;;5053756;28;20174;-75
2023/03/30 08:42:28;;;;;;;6.30;1.37;;;13.70;99.90;;;;;;5062355;28;20199;-75
2023/03/30 08:45:02;;;;;;;8.17;1.40;;;13.70;99.90;;;;;;5054616;28;20258;-74
2023/03/30 08:47:35;;;;;;;10.97;1.90;;;13.80;99.90;;;;;;5053603;28;20724;-75
2023/03/30 08:50:28;;;;;;;8.23;2.10;;;13.90;99.90;;;;;;5055570;28;20517;-75
2023/03/30 08:52:54;;;;;;;13.20;2.87;;;14.20;99.90;;;;;;5053080;28;20235;-74
2023/03/30 08:55:48;;;;;;;12.93;2.00;;;14.30;99.90;;;;;;5054129;28;20183;-75
2023/03/30 08:58:29;;;;;;;8.03;2.00;;;14.40;99.90;;;;;;5053042;28;20172;-74
2023/03/30 09:01:23;;;;;;;9.30;2.30;;;14.50;99.90;;;;;;5052845;28;20183;-74
2023/03/30 09:04:17;;;;;;;12.03;2.30;;;14.70;99.90;;;;;;5051939;28;20186;-75
2023/03/30 09:06:56;;;;;;;6.87;1.80;;;14.80;99.90;;;;;;5054544;28;20163;-75
2023/03/30 09:09:26;;;;;;;13.47;2.00;;;14.80;99.90;;;;;;5052660;28;20179;-75
2023/03/30 09:12:06;;;;;;;9.33;2.10;;;14.90;99.90;;;;;;5052718;28;20268;-75
2023/03/30 09:14:38;;;;;;;14.63;2.67;;;15.00;99.90;;;;;;5052619;28;20195;-74
2023/03/30 09:17:15;;;;;;;9.93;2.50;;;15.00;99.90;;;;;;5053783;28;20190;-74
2023/03/30 09:20:19;;;;;;;9.53;2.73;;;14.80;99.90;;;;;;5052636;28;20186;-76
2023/03/30 09:22:46;;;;;;;9.97;2.80;;;14.50;99.90;;;;;;5052275;28;20202;-75
2023/03/30 09:25:25;;;;;;;13.53;2.40;;;14.40;99.90;;;;;;5052354;28;20164;-75
2023/03/30 09:28:16;;;;;;;13.90;3.13;;;14.40;99.90;;;;;;5053934;28;20237;-75
2023/03/30 09:30:47;;;;;;;12.80;2.80;;;14.10;99.90;;;;;;5053773;28;20255;-75
2023/03/30 09:33:18;;;;;;;11.53;3.00;;;14.10;99.90;;;;;;5053484;28;20549;-75
2023/03/30 09:36:02;;;;;;;12.90;3.20;;;14.00;99.90;;;;;;5053718;28;20164;-75
2023/03/30 09:38:31;;;;;;;12.20;2.83;;;13.60;99.90;;;;;;5053595;28;20697;-75
2023/03/30 09:41:06;;;;;;;15.80;3.10;;;13.50;99.90;;;;;;5052571;28;20580;-76
2023/03/30 09:43:36;;;;;;;13.47;3.03;;;13.50;99.90;;;;;;5052343;28;20406;-76
2023/03/30 09:46:05;;;;;;;13.00;3.17;;;13.50;99.90;;;;;;5053428;28;20164;-75
2023/03/30 09:48:42;;;;;;;12.97;2.73;;;13.30;99.90;;;;;;5052134;28;20167;-74
2023/03/30 09:51:26;;;;;;;11.67;2.97;;;13.30;99.90;;;;;;5053480;28;20677;-74
2023/03/30 09:54:02;;;;;;;8.23;2.20;;;13.50;99.90;;;;;;5051691;28;20195;-75
2023/03/30 09:56:36;;;;;;;11.70;3.33;;;13.70;99.90;;;;;;5052215;28;20170;-75
2023/03/30 09:59:28;;;;;;;11.87;2.77;;;13.80;99.90;;;;;;5051954;28;20189;-75
2023/03/30 10:02:11;;;;;;;8.90;2.63;;;13.80;99.90;;;;;;5053324;28;20587;-76
2023/03/30 10:04:59;;;;;;;13.40;2.97;;;13.90;99.90;;;;;;5053233;28;20171;-75
2023/03/30 10:07:34;;;;;;;9.63;2.47;;;13.80;99.90;;;;;;5051742;28;20175;-75
2023/03/30 10:10:12;;;;;;;11.47;2.97;;;13.60;99.90;;;;;;5052136;28;20167;-74
2023/03/30 10:12:39;;;;;;;7.27;2.50;;;13.50;99.90;;;;;;5052774;28;20259;-75
2023/03/30 10:15:05;;;;;;;10.27;2.60;;;13.40;99.90;;;;;;5051631;28;20644;-76
2023/03/30 10:17:31;;;;;;;9.17;2.60;;;13.40;99.90;;;;;;5051909;28;20169;-75
2023/03/30 10:20:35;;;;;;;9.90;1.70;;;13.40;99.90;;;;;;5052871;28;20166;-74
2023/03/30 10:23:07;;;;;;;14.13;2.90;;;13.30;99.90;;;;;;5050868;28;20711;-76
2023/03/30 10:25:33;;;;;;;9.40;2.03;;;13.30;99.90;;;;;;5051487;28;20178;-75
2023/03/30 10:28:02;;;;;;;11.00;2.33;;;13.20;99.90;;;;;;5051387;28;20171;-75
2023/03/30 10:30:28;;;;;;;9.13;2.40;;;13.40;99.90;;;;;;5051406;28;20182;-74
2023/03/30 10:32:57;;;;;;;14.13;2.87;;;13.60;99.90;;;;;;5051259;28;20247;-76
2023/03/30 10:35:31;;;;;;;9.63;2.23;;;13.70;99.90;;;;;;5051230;28;20653;-77
2023/03/30 10:38:00;;;;;;;10.23;2.43;;;13.90;99.90;;;;;;5051073;28;20293;-75
2023/03/30 10:40:37;;;;;;;11.93;2.73;;;14.00;99.90;;;;;;5052528;28;20531;-74
2023/03/30 10:43:09;;;;;;;10.07;2.00;;;14.20;99.90;;;;;;5051517;28;20168;-74
2023/03/30 10:45:49;;;;;;;16.73;3.03;;;14.20;99.90;;;;;;5053374;28;20167;-74
2023/03/30 10:48:39;;;;;;;9.13;2.17;;;14.40;99.90;;;;;;5051625;28;20186;-75
2023/03/30 10:51:13;;;;;;;13.63;2.77;;;14.70;99.90;;;;;;5052268;28;20168;-76
2023/03/30 10:53:58;;;;;;;12.13;2.63;;;14.90;99.90;;;;;;5051064;28;20692;-76
2023/03/30 10:56:53;;;;;;;11.77;3.30;;;14.90;99.90;;;;;;5051218;28;20267;-76
2023/03/30 10:59:30;;;;;;;8.43;2.67;;;14.90;99.90;;;;;;5048347;28;20188;-75
2023/03/30 11:02:16;;;;;;;8.23;2.87;;;14.80;99.90;;;;;;5051089;28;20187;-75
2023/03/30 11:04:46;;;;;;;10.73;2.73;;;14.70;99.90;;;;;;5050920;28;20577;-75
2023/03/30 11:07:23;;;;;;;13.93;3.20;;;14.40;99.90;;;;;;5051344;28;20219;-75
2023/03/30 11:09:53;;;;;;;13.03;3.17;;;14.60;99.90;;;;;;5050978;28;20173;-75
2023/03/30 11:12:25;;;;;;;10.23;3.13;;;14.90;99.90;;;;;;5051469;28;20180;-75
2023/03/30 11:15:05;;;;;;;13.00;2.83;;;15.20;99.90;;;;;;5051088;28;20202;-75
2023/03/30 11:17:34;;;;;;;11.37;2.17;;;15.30;99.90;;;;;;5051600;28;20578;-75
2023/03/30 11:20:17;;;;;;;12.07;2.67;;;15.60;99.90;;;;;;5050996;28;20582;-75
2023/03/30 11:22:54;;;;;;;13.30;2.80;;;15.60;99.90;;;;;;5051517;28;20199;-76
2023/03/30 11:25:33;;;;;;;11.87;2.80;;;15.70;99.90;;;;;;5052554;28;20194;-75
2023/03/30 11:28:10;;;;;;;15.13;2.73;;;15.80;99.90;;;;;;5055165;28;20170;-75
2023/03/30 11:30:39;;;;;;;12.47;3.27;;;15.90;99.90;;;;;;5056166;28;20317;-76
2023/03/30 11:33:35;;;;;;;14.57;2.87;;;16.20;99.90;;;;;;5055079;28;20204;-74
2023/03/30 11:36:17;;;;;;;12.40;2.67;;;16.20;99.90;;;;;;5050563;28;20192;-75
2023/03/30 11:39:02;;;;;;;17.80;3.00;;;16.70;99.90;;;;;;5055245;28;20170;-74
2023/03/30 11:41:40;;;;;;;9.33;2.27;;;17.40;99.90;;;;;;5054764;28;20179;-75
2023/03/30 11:44:10;;;;;;;15.93;2.77;;;17.60;99.90;;;;;;5054548;28;20667;-75
2023/03/30 11:47:04;;;;;;;9.50;2.30;;;17.70;99.90;;;;;;5054372;28;20274;-74
2023/03/30 11:49:54;;;;;;;11.50;2.53;;;17.70;99.90;;;;;;5055701;28;20200;-77
2023/03/30 11:52:32;;;;;;;15.97;3.13;;;17.30;99.90;;;;;;5054220;28;20179;-75
2023/03/30 11:55:27;;;;;;;14.57;2.70;;;17.00;99.90;;;;;;5054053;28;20221;-75
2023/03/30 11:58:00;;;;;;;16.67;2.77;;;17.10;99.90;;;;;;5055034;28;20174;-75
2023/03/30 12:00:45;;;;;;;10.63;1.80;;;17.10;99.90;;;;;;5054353;28;20173;-75
2023/03/30 12:03:34;;;;;;;10.37;1.87;;;17.20;99.90;;;;;;5054417;28;20185;-75
2023/03/30 12:06:23;;;;;;;11.30;2.20;;;17.60;99.90;;;;;;5053915;28;20181;-75
2023/03/30 12:09:03;;;;;;;13.73;2.30;;;17.70;99.90;;;;;;5031684;28;20190;-75
2023/03/30 12:11:47;;;;;;;14.13;2.43;;;17.50;99.90;;;;;;5054130;28;20567;-75
2023/03/30 12:14:40;;;;;;;18.00;2.50;;;17.10;99.90;;;;;;5054020;28;20731;-75
2023/03/30 12:17:12;;;;;;;15.17;3.30;;;17.00;99.90;;;;;;5054081;28;20169;-74
2023/03/30 12:19:58;;;;;;;15.43;2.73;;;16.90;99.90;;;;;;5054241;28;20223;-75
2023/03/30 12:22:33;;;;;;;10.57;2.83;;;17.40;99.90;;;;;;5054159;28;20172;-76
2023/03/30 12:25:39;;;;;;;13.70;2.67;;;17.40;99.90;;;;;;5054429;28;20228;-75
2023/03/30 12:28:14;;;;;;;8.40;2.17;;;17.40;99.90;;;;;;5054111;28;20586;-75
2023/03/30 12:30:55;;;;;;;9.97;2.57;;;17.50;99.90;;;;;;5054299;28;20179;-75
2023/03/30 12:33:47;;;;;;;16.50;2.87;;;17.70;99.90;;;;;;5055355;28;20278;-75
2023/03/30 12:36:25;;;;;;;14.10;3.03;;;18.30;99.90;;;;;;5054089;28;20258;-75
2023/03/30 12:39:00;;;;;;;16.97;2.60;;;18.50;99.90;;;;;;5054159;28;20629;-74
2023/03/30 12:41:37;;;;;;;7.77;1.80;;;18.70;99.90;;;;;;5054735;28;20167;-75
2023/03/30 12:44:24;;;;;;;13.07;2.07;;;19.00;99.90;;;;;;5055475;28;20172;-79
2023/03/30 12:47:11;;;;;;;10.13;2.00;;;19.20;99.90;;;;;;5053711;28;20313;-81
2023/03/30 12:49:54;;;;;;;9.37;1.77;;;19.10;99.90;;;;;;5054529;28;20648;-79
2023/03/30 12:52:42;;;;;;;12.67;2.30;;;19.20;99.90;;;;;;5054095;28;20191;-81
2023/03/30 12:55:17;;;;;;;12.33;2.60;;;18.80;99.90;;;;;;5055542;28;20217;-80
2023/03/30 12:58:10;;;;;;;12.47;2.27;;;18.50;99.90;;;;;;5054193;28;20171;-79
2023/03/30 13:01:06;;;;;;;11.87;2.43;;;17.90;99.90;;;;;;5056001;28;20232;-79
2023/03/30 13:03:51;;;;;;;13.63;2.20;;;17.70;99.90;;;;;;5054483;28;20651;-80
2023/03/30 13:06:26;;;;;;;13.37;2.33;;;17.70;99.90;;;;;;5054174;28;20166;-80
2023/03/30 13:09:14;;;;;;;12.17;2.27;;;17.50;99.90;;;;;;5054796;28;20169;-81
2023/03/30 13:11:44;;;;;;;11.60;2.07;;;17.20;99.90;;;;;;5046793;28;20614;-79
2023/03/30 13:14:29;;;;;;;12.13;1.87;;;17.20;99.90;;;;;;5053545;28;20572;-79